Terminal Aerodrome Forecast
Issued by NWS Charleston, WV

Current Version | Previous Version | Text Only | Print | Product List | Glossary Off
Versions: 1 2 3 4 5 6 7 8 9 10 11 12 13 14 15 16 17 18 19 20 21 22 23 24 25 26 27 28 29 30

000
FTUS41 KRLX 270500 RRA
TAFBKW
TAF
KBKW 270556Z 2706/2806 33007KT 6SM -RASN OVC005
     FM270800 33008KT 4SM -SN BR OVC006
     FM271200 32009KT P6SM OVC012
     FM271700 32010G17KT P6SM OVC035
     FM272300 32009KT P6SM OVC030
     FM280000 32008KT P6SM -SHSN OVC030
     FM280500 32007KT P6SM BKN040=

USA.gov is the U.S. government's official web portal to all federal, state and local government web resources and services.